createdAt,value
2018-12-26T00:01:04.728Z,19.32
2018-12-26T00:03:40.407Z,17.20
2018-12-26T00:06:17.802Z,17.17
2018-12-26T00:08:53.553Z,17.82
2018-12-26T00:11:26.170Z,18.80
2018-12-26T00:14:08.674Z,17.52
2018-12-26T00:16:52.700Z,19.42
2018-12-26T00:19:27.933Z,17.10
2018-12-26T00:22:10.878Z,20.50
2018-12-26T00:24:46.956Z,17.80
2018-12-26T00:27:22.563Z,18.75
2018-12-26T00:29:59.236Z,19.65
2018-12-26T00:32:30.849Z,18.80
2018-12-26T00:35:09.467Z,17.50
2018-12-26T00:37:50.376Z,18.10
2018-12-26T00:40:31.366Z,16.82
2018-12-26T00:43:06.347Z,16.82
2018-12-26T00:45:41.750Z,15.40
2018-12-26T00:48:19.213Z,16.48
2018-12-26T00:50:54.650Z,17.02
2018-12-26T00:53:28.803Z,15.20
2018-12-26T00:56:10.223Z,15.40
2018-12-26T00:58:48.333Z,14.25
2018-12-26T01:01:24.926Z,17.00
2018-12-26T01:03:58.354Z,16.30
2018-12-26T01:06:35.042Z,16.17
2018-12-26T01:09:09.264Z,17.82
2018-12-26T01:11:44.298Z,15.32
2018-12-26T01:14:26.457Z,15.00
2018-12-26T01:17:01.534Z,14.63
2018-12-26T01:19:33.962Z,16.10
2018-12-26T01:22:15.705Z,17.48
2018-12-26T01:24:51.154Z,15.30
2018-12-26T01:27:32.688Z,16.48
2018-12-26T01:30:06.088Z,14.90
2018-12-26T01:32:40.709Z,16.10
2018-12-26T01:35:17.083Z,17.42
2018-12-26T01:37:52.445Z,16.37
2018-12-26T01:40:43.325Z,17.25
2018-12-26T01:43:18.868Z,16.12
2018-12-26T01:46:04.215Z,15.10
2018-12-26T01:48:49.410Z,15.93
2018-12-26T01:51:21.655Z,15.93
2018-12-26T01:53:54.385Z,16.52
2018-12-26T01:56:28.821Z,14.43
2018-12-26T01:59:04.288Z,18.15
2018-12-26T02:01:39.302Z,17.77
2018-12-26T02:04:15.797Z,17.73
2018-12-26T02:06:50.871Z,16.55
2018-12-26T02:09:31.906Z,18.15
2018-12-26T02:12:05.191Z,17.50
2018-12-26T02:14:37.937Z,15.98
2018-12-26T02:17:11.472Z,16.37
2018-12-26T02:19:54.622Z,16.73
2018-12-26T02:22:30.127Z,18.82
2018-12-26T02:25:02.796Z,20.48
2018-12-26T02:27:37.729Z,18.52
2018-12-26T02:35:58.444Z,17.82
2018-12-26T02:38:40.857Z,18.77
2018-12-26T02:41:22.335Z,19.92
2018-12-26T02:46:56.261Z,15.05
2018-12-26T02:49:28.877Z,16.48
2018-12-26T02:52:05.316Z,17.95
2018-12-26T02:54:46.667Z,17.55
2018-12-26T03:00:24.088Z,18.10
2018-12-26T03:03:08.645Z,16.37
2018-12-26T03:05:43.128Z,20.00
2018-12-26T03:08:29.272Z,20.23
2018-12-26T03:11:05.056Z,17.82
2018-12-26T03:13:47.147Z,16.48
2018-12-26T03:16:24.330Z,16.82
2018-12-26T03:18:59.553Z,19.77
2018-12-26T03:21:32.897Z,19.75
2018-12-26T03:24:17.948Z,16.23
2018-12-26T03:27:09.601Z,19.77
2018-12-26T03:29:39.714Z,16.90
2018-12-26T03:32:12.459Z,19.25
2018-12-26T03:34:54.801Z,19.30
2018-12-26T03:37:37.895Z,15.85
2018-12-26T03:40:22.294Z,20.00
2018-12-26T03:42:54.977Z,18.52
2018-12-26T03:45:31.832Z,20.40
2018-12-26T03:48:03.786Z,19.32
2018-12-26T03:50:48.359Z,20.55
2018-12-26T03:53:23.495Z,18.07
2018-12-26T03:56:00.206Z,14.87
2018-12-26T03:58:41.750Z,15.88
2018-12-26T04:01:12.061Z,17.87
2018-12-26T04:03:41.870Z,18.60
2018-12-26T04:06:17.578Z,17.77
2018-12-26T04:08:49.273Z,18.55
2018-12-26T04:11:32.288Z,16.23
2018-12-26T04:14:07.884Z,14.38
2018-12-26T04:16:43.899Z,15.38
2018-12-26T04:25:14.970Z,14.07
2018-12-26T04:28:00.768Z,16.55
2018-12-26T04:30:32.083Z,16.67
2018-12-26T04:33:04.844Z,17.10
2018-12-26T04:35:47.131Z,17.52
2018-12-26T04:38:21.968Z,16.77
2018-12-26T04:40:57.239Z,17.37
2018-12-26T04:43:32.541Z,15.65
2018-12-26T04:46:15.853Z,16.77
2018-12-26T04:48:50.452Z,14.53
2018-12-26T04:51:25.400Z,14.73
2018-12-26T04:53:57.869Z,16.82
2018-12-26T04:56:34.391Z,16.80
2018-12-26T05:02:11.762Z,16.17
2018-12-26T05:04:44.153Z,16.42
2018-12-26T05:07:28.597Z,14.30
2018-12-26T05:10:01.078Z,16.93
2018-12-26T05:12:31.389Z,17.17
2018-12-26T05:15:05.229Z,17.87
2018-12-26T05:17:38.763Z,16.40
2018-12-26T05:20:11.691Z,18.30
2018-12-26T05:22:53.693Z,14.65
2018-12-26T05:25:26.344Z,14.05
2018-12-26T05:28:00.748Z,15.20
2018-12-26T05:30:34.918Z,14.40
2018-12-26T05:33:09.153Z,17.07
2018-12-26T05:35:44.476Z,13.25
2018-12-26T05:40:54.281Z,15.28
2018-12-26T05:43:27.309Z,10.30
2018-12-26T05:46:00.933Z,12.65
2018-12-26T05:48:34.215Z,15.53
2018-12-26T05:51:07.174Z,12.55
2018-12-26T05:53:47.944Z,14.35
2018-12-26T05:56:27.470Z,11.63
2018-12-26T05:59:02.579Z,14.15
2018-12-26T06:01:38.890Z,16.48
2018-12-26T06:04:13.821Z,14.80
2018-12-26T06:06:49.403Z,16.20
2018-12-26T06:09:24.217Z,12.13
2018-12-26T06:11:58.330Z,11.93
2018-12-26T06:14:31.061Z,14.78
2018-12-26T06:17:06.549Z,11.40
2018-12-26T06:19:44.731Z,14.28
2018-12-26T06:22:20.098Z,11.43
2018-12-26T06:27:56.356Z,14.35
2018-12-26T06:30:33.451Z,16.93
2018-12-26T06:33:09.282Z,15.20
2018-12-26T06:35:44.279Z,16.77
2018-12-26T06:38:16.956Z,15.55
2018-12-26T06:40:51.196Z,15.32
2018-12-26T06:43:27.028Z,15.18
2018-12-26T06:46:11.217Z,15.03
2018-12-26T06:48:48.483Z,13.55
2018-12-26T06:51:23.166Z,15.72
2018-12-26T06:53:58.157Z,13.85
2018-12-26T06:56:33.127Z,14.20
2018-12-26T06:59:08.456Z,15.15
2018-12-26T07:01:43.350Z,13.80
2018-12-26T07:04:18.692Z,13.15
2018-12-26T07:06:50.432Z,13.45
2018-12-26T07:09:34.917Z,12.47
2018-12-26T07:12:09.628Z,14.45
2018-12-26T07:14:52.803Z,14.85
2018-12-26T07:17:32.412Z,12.07
2018-12-26T07:20:07.117Z,15.25
2018-12-26T07:22:40.225Z,14.98
2018-12-26T07:25:12.796Z,14.05
2018-12-26T07:27:47.281Z,14.55
2018-12-26T07:30:21.596Z,13.70
2018-12-26T07:32:56.479Z,14.13
2018-12-26T07:35:30.041Z,14.40
2018-12-26T07:38:03.461Z,15.38
2018-12-26T07:40:37.238Z,17.37
2018-12-26T07:43:23.106Z,14.45
2018-12-26T07:45:58.173Z,13.80
2018-12-26T07:48:33.070Z,13.58
2018-12-26T07:51:05.463Z,13.38
2018-12-26T07:56:22.354Z,12.75
2018-12-26T07:58:56.973Z,12.47
2018-12-26T08:01:28.821Z,14.75
2018-12-26T08:04:04.188Z,15.30
2018-12-26T08:06:37.035Z,14.33
2018-12-26T08:09:11.627Z,14.03
2018-12-26T08:11:46.727Z,14.65
2018-12-26T08:14:15.876Z,16.27
2018-12-26T08:16:45.071Z,14.55
2018-12-26T08:19:19.209Z,13.22
2018-12-26T08:21:55.109Z,13.40
2018-12-26T08:24:30.455Z,11.30
2018-12-26T08:27:02.774Z,13.03
2018-12-26T08:29:37.135Z,11.03
2018-12-26T08:32:12.786Z,12.55
2018-12-26T08:34:48.599Z,14.38
2018-12-26T08:37:23.518Z,15.63
2018-12-26T08:40:06.817Z,13.62
2018-12-26T08:42:47.330Z,10.70
2018-12-26T08:45:28.299Z,12.78
2018-12-26T08:50:59.527Z,11.73
2018-12-26T08:53:34.966Z,12.33
2018-12-26T08:56:08.425Z,14.28
2018-12-26T08:58:41.060Z,12.07
2018-12-26T09:01:15.667Z,14.40
2018-12-26T09:03:50.662Z,12.45
2018-12-26T09:06:28.467Z,10.08
2018-12-26T09:09:01.175Z,13.38
2018-12-26T09:11:36.410Z,14.68
2018-12-26T09:14:17.287Z,11.80
2018-12-26T09:16:53.755Z,12.53
2018-12-26T09:19:27.914Z,14.10
2018-12-26T09:22:01.485Z,14.58
2018-12-26T09:24:46.831Z,14.85
2018-12-26T09:30:20.890Z,12.43
2018-12-26T09:32:56.113Z,10.95
2018-12-26T09:35:25.974Z,11.60
2018-12-26T09:37:55.541Z,13.60
2018-12-26T09:40:30.063Z,12.90
2018-12-26T09:43:05.253Z,14.30
2018-12-26T09:45:40.376Z,13.32
2018-12-26T09:48:22.340Z,14.13
2018-12-26T09:50:55.011Z,16.30
2018-12-26T09:53:29.454Z,12.68
2018-12-26T09:56:03.568Z,13.75
2018-12-26T09:58:39.549Z,12.78
2018-12-26T10:01:13.664Z,12.85
2018-12-26T10:03:49.400Z,11.93
2018-12-26T10:06:29.298Z,13.20
2018-12-26T10:09:05.270Z,10.50
2018-12-26T10:11:39.806Z,10.75
2018-12-26T10:14:14.981Z,11.57
2018-12-26T10:16:48.642Z,11.95
2018-12-26T10:19:23.194Z,11.85
2018-12-26T10:21:57.314Z,10.72
2018-12-26T10:27:37.977Z,12.23
2018-12-26T10:33:15.428Z,11.43
2018-12-26T10:35:50.066Z,11.48
2018-12-26T10:38:26.619Z,12.00
2018-12-26T10:41:07.060Z,11.57
2018-12-26T10:43:51.123Z,11.60
2018-12-26T10:49:23.128Z,11.28
2018-12-26T10:51:55.813Z,11.53
2018-12-26T10:54:31.477Z,13.88
2018-12-26T10:57:22.622Z,15.35
2018-12-26T11:00:14.228Z,12.23
2018-12-26T11:02:47.664Z,12.43
2018-12-26T11:08:35.459Z,13.85
2018-12-26T11:11:12.282Z,13.45
2018-12-26T11:13:49.603Z,12.40
2018-12-26T11:16:38.789Z,12.18
2018-12-26T11:19:22.162Z,11.12
2018-12-26T11:27:57.111Z,11.60
2018-12-26T11:30:41.777Z,11.35
2018-12-26T11:33:23.230Z,11.18
2018-12-26T11:36:01.683Z,12.15
2018-12-26T11:38:37.051Z,13.50
2018-12-26T11:41:13.774Z,12.45
2018-12-26T11:47:01.009Z,12.43
2018-12-26T11:55:48.698Z,12.13
2018-12-26T11:58:31.316Z,10.65
2018-12-26T12:01:06.997Z,13.10
2018-12-26T12:06:38.278Z,14.70
2018-12-26T12:09:09.011Z,13.98
2018-12-26T12:11:46.834Z,13.03
2018-12-26T12:14:24.021Z,13.28
2018-12-26T12:22:48.368Z,15.15
2018-12-26T12:25:35.877Z,14.55
2018-12-26T12:28:12.597Z,13.30
2018-12-26T12:30:48.654Z,13.43
2018-12-26T12:33:23.842Z,14.73
2018-12-26T12:36:04.126Z,11.85
2018-12-26T12:38:41.264Z,14.07
2018-12-26T12:41:14.931Z,13.98
2018-12-26T12:46:56.341Z,12.82
2018-12-26T12:49:44.040Z,11.30
2018-12-26T12:52:16.190Z,11.73
2018-12-26T12:55:01.234Z,11.95
2018-12-26T12:57:54.315Z,13.00
2018-12-26T13:00:30.589Z,12.37
2018-12-26T13:03:18.535Z,12.10
2018-12-26T13:09:05.879Z,12.20
2018-12-26T13:14:37.018Z,11.80
2018-12-26T13:17:26.306Z,11.78
2018-12-26T13:20:16.144Z,11.63
2018-12-26T13:23:05.062Z,12.43
2018-12-26T13:25:46.475Z,11.05
2018-12-26T13:28:23.430Z,12.65
2018-12-26T13:31:04.998Z,12.25
2018-12-26T13:33:31.163Z,12.80
2018-12-26T13:39:04.908Z,12.10
2018-12-26T13:41:34.134Z,11.12
2018-12-26T13:47:03.643Z,13.10
2018-12-26T13:49:32.842Z,11.33
2018-12-26T13:52:02.336Z,11.73
2018-12-26T13:54:36.470Z,12.37
2018-12-26T13:57:07.651Z,13.62
2018-12-26T13:59:38.057Z,11.18
2018-12-26T14:02:07.285Z,12.88
2018-12-26T14:04:38.627Z,10.15
2018-12-26T14:07:08.246Z,12.65
2018-12-26T14:09:38.073Z,11.18
2018-12-26T14:12:08.447Z,12.30
2018-12-26T14:14:38.485Z,11.55
2018-12-26T14:20:07.484Z,12.23
2018-12-26T14:22:39.057Z,12.93
2018-12-26T14:25:09.431Z,12.65
2018-12-26T14:33:36.082Z,12.60
2018-12-26T14:36:17.844Z,14.68
2018-12-26T14:41:46.040Z,12.50
2018-12-26T14:47:15.479Z,12.73
2018-12-26T14:49:45.072Z,12.35
2018-12-26T14:52:15.211Z,11.33
2018-12-26T14:54:46.619Z,12.00
2018-12-26T14:57:20.492Z,12.25
2018-12-26T14:59:51.464Z,14.30
2018-12-26T15:02:22.509Z,16.27
2018-12-26T15:04:52.105Z,17.70
2018-12-26T15:07:23.652Z,14.80
2018-12-26T15:09:53.587Z,16.35
2018-12-26T15:12:23.280Z,13.20
2018-12-26T15:14:59.734Z,13.72
2018-12-26T15:20:30.783Z,14.58
2018-12-26T15:22:59.983Z,12.98
2018-12-26T15:25:30.410Z,14.90
2018-12-26T15:27:59.753Z,13.05
2018-12-26T15:30:28.994Z,17.82
2018-12-26T15:32:58.468Z,19.27
2018-12-26T15:35:27.921Z,16.55
2018-12-26T15:37:57.194Z,16.85
2018-12-26T15:40:39.488Z,15.53
2018-12-26T15:46:06.931Z,15.50
2018-12-26T15:48:49.088Z,15.15
2018-12-26T15:51:19.401Z,17.37
2018-12-26T15:53:52.763Z,14.53
2018-12-26T15:56:22.172Z,16.32
2018-12-26T15:58:53.090Z,11.95
2018-12-26T16:01:22.371Z,14.50
2018-12-26T16:03:58.221Z,14.05
2018-12-26T16:06:50.735Z,12.13
2018-12-26T16:09:26.969Z,12.28
2018-12-26T16:12:01.130Z,13.45
2018-12-26T16:14:38.544Z,18.32
2018-12-26T16:17:14.797Z,14.80
2018-12-26T16:19:49.221Z,14.90
2018-12-26T16:22:21.994Z,14.23
2018-12-26T16:24:55.699Z,14.45
2018-12-26T16:27:30.093Z,14.50
2018-12-26T16:30:06.339Z,13.25
2018-12-26T16:32:40.560Z,15.95
2018-12-26T16:35:14.679Z,15.78
2018-12-26T16:37:48.862Z,12.68
2018-12-26T16:40:21.512Z,12.80
2018-12-26T16:42:56.009Z,13.53
2018-12-26T16:45:30.678Z,13.68
2018-12-26T16:48:06.954Z,15.08
2018-12-26T16:50:41.572Z,17.15
2018-12-26T16:53:16.210Z,18.67
2018-12-26T16:55:50.770Z,19.15
2018-12-26T16:58:37.675Z,19.45
2018-12-26T17:01:14.652Z,17.92
2018-12-26T17:03:59.957Z,14.05
2018-12-26T17:12:20.561Z,13.25
2018-12-26T17:14:56.272Z,29.20
2018-12-26T17:17:32.375Z,19.73
2018-12-26T17:20:07.497Z,19.40
2018-12-26T17:22:51.931Z,14.98
2018-12-26T17:28:22.624Z,12.43
2018-12-26T17:31:12.001Z,10.48
2018-12-26T17:33:46.193Z,11.10
2018-12-26T17:51:04.411Z,21.73
2018-12-26T20:10:13.377Z,14.47
